Time;durP1;ratioP1;P1;durP2;ratioP2;P2;SDS_P1;SDS_P2;PMS_P1;PMS_P2;Temp;Humidity;BMP_temperature;BMP_pressure;BME280_temperature;BME280_humidity;BME280_pressure;Samples;Min_cycle;Max_cycle;Signal;HPM_P1;HPM_P2
2021/11/22 00:00:51;;;;;;;6.00;3.40;;;;;;;-145.69;100.00;72337.75;5093300;28;20208;-79
2021/11/22 00:03:17;;;;;;;6.47;3.87;;;;;;;-145.69;100.00;72347.69;5093372;28;20205;-79
2021/11/22 00:05:44;;;;;;;5.43;3.13;;;;;;;-145.69;100.00;72341.72;5093061;28;20194;-79
2021/11/22 00:08:11;;;;;;;5.83;3.07;;;;;;;-145.69;100.00;72333.75;5093040;28;20205;-79
2021/11/22 00:10:39;;;;;;;6.87;3.50;;;;;;;-145.69;100.00;72345.69;5093417;28;20255;-79
2021/11/22 00:13:05;;;;;;;6.37;3.43;;;;;;;-145.69;100.00;72345.69;5093087;28;20237;-79
2021/11/22 00:15:32;;;;;;;6.30;3.67;;;;;;;-145.69;100.00;72337.75;5093261;28;20213;-79
2021/11/22 00:17:58;;;;;;;6.23;3.47;;;;;;;-145.69;100.00;72327.78;5094427;28;20649;-79
2021/11/22 00:20:26;;;;;;;6.40;3.40;;;;;;;-145.69;100.00;72337.75;5097144;28;20200;-79
2021/11/22 00:22:54;;;;;;;4.93;3.03;;;;;;;-145.69;100.00;72337.75;5096884;28;20297;-79
2021/11/22 00:25:22;;;;;;;6.77;3.90;;;;;;;-145.69;100.00;72341.72;5096894;28;20244;-79
2021/11/22 00:27:51;;;;;;;6.23;3.50;;;;;;;-145.69;100.00;72329.78;5097142;28;20275;-79
2021/11/22 00:30:17;;;;;;;16.90;7.70;;;;;;;-145.69;100.00;72343.72;5097140;28;20247;-79
2021/11/22 00:32:45;;;;;;;16.93;7.40;;;;;;;-145.69;100.00;72347.69;5096557;28;20696;-78
2021/11/22 00:35:14;;;;;;;7.77;4.60;;;;;;;-145.69;100.00;72353.66;5096866;28;20206;-78
2021/11/22 00:37:41;;;;;;;11.57;5.40;;;;;;;-145.69;100.00;72353.66;5097027;28;20245;-79
2021/11/22 00:40:10;;;;;;;13.10;5.93;;;;;;;-145.69;100.00;72357.66;5096717;28;20216;-79
2021/11/22 00:42:37;;;;;;;13.90;7.03;;;;;;;-145.69;100.00;72357.66;5096513;28;20202;-79
2021/11/22 00:45:07;;;;;;;12.33;6.20;;;;;;;-145.69;100.00;72333.75;5096478;28;20656;-79
2021/11/22 00:47:35;;;;;;;6.53;4.00;;;;;;;-145.69;100.00;72353.66;5096499;28;20198;-78
2021/11/22 00:50:02;;;;;;;7.10;3.80;;;;;;;-145.69;100.00;72361.63;5096430;28;20266;-79
2021/11/22 00:52:28;;;;;;;11.47;4.73;;;;;;;-145.69;100.00;72357.66;5096396;28;20221;-78
2021/11/22 00:54:55;;;;;;;7.93;4.20;;;;;;;-145.69;100.00;72355.66;5096183;28;20201;-78
2021/11/22 00:57:21;;;;;;;9.23;4.37;;;;;;;-145.69;100.00;72361.63;5096505;28;20595;-79
2021/11/22 00:59:48;;;;;;;9.37;4.47;;;;;;;-145.69;100.00;72365.59;5096407;28;20195;-78
2021/11/22 01:02:16;;;;;;;10.13;5.13;;;;;;;-145.69;100.00;72371.56;5096093;28;20198;-79
2021/11/22 01:04:42;;;;;;;10.20;5.57;;;;;;;-145.69;100.00;72373.56;5096416;28;20232;-79
2021/11/22 01:07:09;;;;;;;11.10;5.37;;;;;;;-145.69;100.00;72371.56;5096242;28;20194;-77
2021/11/22 01:09:35;;;;;;;10.17;5.00;;;;;;;-145.69;100.00;72361.63;5096223;28;20256;-79
2021/11/22 01:12:02;;;;;;;9.47;5.20;;;;;;;-145.69;100.00;72369.59;5098392;28;20226;-78
2021/11/22 01:14:29;;;;;;;9.50;5.07;;;;;;;-145.69;100.00;72377.53;5095998;28;20723;-78
2021/11/22 01:16:55;;;;;;;9.63;4.87;;;;;;;-145.69;100.00;72377.53;5095991;28;20205;-78
2021/11/22 01:19:23;;;;;;;10.13;4.73;;;;;;;-145.69;100.00;72375.56;5096198;28;20224;-79
2021/11/22 01:21:50;;;;;;;9.10;4.63;;;;;;;-145.69;100.00;72369.59;5096073;28;20610;-79
2021/11/22 01:24:16;;;;;;;7.70;4.77;;;;;;;-145.69;100.00;72377.53;5095638;28;20194;-78
2021/11/22 01:26:43;;;;;;;7.80;4.20;;;;;;;-145.69;100.00;72373.56;5102839;28;20202;-78
2021/11/22 01:29:09;;;;;;;8.27;4.63;;;;;;;-145.69;100.00;72369.59;5116320;28;20197;-78
2021/11/22 01:31:36;;;;;;;7.80;4.80;;;;;;;-145.69;100.00;72371.56;5115931;28;20233;-78
2021/11/22 01:34:02;;;;;;;7.53;4.20;;;;;;;-145.69;100.00;72377.53;5116205;28;20208;-78
2021/11/22 01:36:31;;;;;;;7.77;4.20;;;;;;;-145.69;100.00;72373.56;5115457;28;20206;-78
2021/11/22 01:38:57;;;;;;;7.67;4.00;;;;;;;-145.69;100.00;72377.53;5116205;28;20236;-79
2021/11/22 01:41:24;;;;;;;7.23;4.27;;;;;;;-145.69;100.00;72371.56;5115834;28;20208;-78
2021/11/22 01:43:51;;;;;;;7.93;4.40;;;;;;;-145.69;100.00;72373.56;5116004;28;20198;-79
2021/11/22 01:46:18;;;;;;;7.40;4.00;;;;;;;-145.69;100.00;72377.53;5115913;28;20201;-79
2021/11/22 01:48:45;;;;;;;8.03;4.73;;;;;;;-145.69;100.00;72377.53;5115827;28;20197;-79
2021/11/22 01:51:12;;;;;;;7.93;4.43;;;;;;;-145.69;100.00;72377.53;5115948;28;20207;-79
2021/11/22 01:53:40;;;;;;;6.80;3.97;;;;;;;-145.69;100.00;72379.53;5115241;28;20232;-79
2021/11/22 01:56:06;;;;;;;10.47;5.20;;;;;;;-145.69;100.00;72375.56;5115672;28;20698;-78
2021/11/22 01:58:33;;;;;;;10.67;5.40;;;;;;;-145.69;100.00;72377.53;5115549;28;20201;-79
2021/11/22 02:01:00;;;;;;;12.13;6.07;;;;;;;-145.69;100.00;72379.53;5115620;28;20208;-78
2021/11/22 02:03:27;;;;;;;11.83;5.93;;;;;;;-145.69;100.00;72383.53;5115725;28;20636;-78
2021/11/22 02:05:54;;;;;;;8.23;4.80;;;;;;;-145.69;100.00;72389.50;5115462;28;20656;-79
2021/11/22 02:08:22;;;;;;;9.90;4.53;;;;;;;-145.69;100.00;72393.47;5115451;28;20207;-78
2021/11/22 02:10:51;;;;;;;8.50;4.10;;;;;;;-145.69;100.00;72387.50;5115348;28;20198;-79
2021/11/22 02:13:18;;;;;;;7.50;3.90;;;;;;;-145.69;100.00;72391.47;5115228;28;20228;-79
2021/11/22 02:15:46;;;;;;;7.53;3.87;;;;;;;-145.69;100.00;72393.47;5115386;28;20201;-78
2021/11/22 02:18:12;;;;;;;7.10;4.07;;;;;;;-145.69;100.00;72401.44;5115486;28;20197;-79
2021/11/22 02:20:40;;;;;;;7.70;3.83;;;;;;;-145.69;100.00;72405.41;5115238;28;20198;-78
2021/11/22 02:23:09;;;;;;;8.00;4.53;;;;;;;-145.69;100.00;72407.41;5115143;28;20563;-79
2021/11/22 02:25:38;;;;;;;8.67;4.70;;;;;;;-145.69;100.00;72409.38;5114848;28;20275;-79
2021/11/22 02:28:05;;;;;;;8.07;4.27;;;;;;;-145.69;100.00;72409.38;5115267;28;20206;-79
2021/11/22 02:30:34;;;;;;;6.67;3.90;;;;;;;-145.69;100.00;72409.38;5115075;28;20197;-79
2021/11/22 02:33:03;;;;;;;10.17;4.23;;;;;;;-145.69;100.00;72409.38;5115033;28;20695;-79
2021/11/22 02:35:31;;;;;;;6.43;3.83;;;;;;;-145.69;100.00;72417.34;5114876;28;20207;-79
2021/11/22 02:37:59;;;;;;;6.93;3.87;;;;;;;-145.69;100.00;72413.38;5114931;28;20254;-78
2021/11/22 02:40:25;;;;;;;6.70;4.03;;;;;;;-145.69;100.00;72421.34;5114129;28;20209;-79
2021/11/22 02:42:52;;;;;;;6.20;3.73;;;;;;;-145.69;100.00;72421.34;5114898;28;20212;-79
2021/11/22 02:45:21;;;;;;;7.03;3.87;;;;;;;-145.69;100.00;72421.34;5114797;28;20289;-79
2021/11/22 02:47:49;;;;;;;7.53;4.47;;;;;;;-145.69;100.00;72425.31;5114729;28;20201;-79
2021/11/22 02:50:19;;;;;;;8.00;4.43;;;;;;;-145.69;100.00;72427.31;5114498;28;20659;-79
2021/11/22 02:52:47;;;;;;;8.10;4.73;;;;;;;-145.69;100.00;72435.28;5114425;28;20222;-79
2021/11/22 02:55:17;;;;;;;7.67;4.13;;;;;;;-145.69;100.00;72421.34;5114704;28;20202;-78
2021/11/22 02:57:44;;;;;;;8.73;4.73;;;;;;;-145.69;100.00;72435.28;5114795;28;20644;-78
2021/11/22 03:00:14;;;;;;;9.87;5.33;;;;;;;-145.69;100.00;72437.25;5114506;28;20216;-79
2021/11/22 03:02:41;;;;;;;9.30;4.87;;;;;;;-145.69;100.00;72439.25;5114319;28;20247;-79
2021/11/22 03:05:08;;;;;;;10.80;4.93;;;;;;;-145.69;100.00;72445.22;5114315;28;20326;-79
2021/11/22 03:07:35;;;;;;;10.67;5.27;;;;;;;-145.69;100.00;72441.25;5114173;28;20205;-78
2021/11/22 03:10:01;;;;;;;8.67;5.03;;;;;;;-145.69;100.00;72437.25;5114300;28;20197;-79
2021/11/22 03:12:29;;;;;;;8.40;4.53;;;;;;;-145.69;100.00;72441.25;5113990;28;20221;-79
2021/11/22 03:14:56;;;;;;;9.23;4.50;;;;;;;-145.69;100.00;72449.19;5114254;28;20201;-78
2021/11/22 03:17:22;;;;;;;10.07;5.30;;;;;;;-145.69;100.00;72461.13;5114182;28;20296;-79
2021/11/22 03:19:49;;;;;;;12.67;5.77;;;;;;;-145.69;100.00;72451.19;5096892;28;20204;-79
2021/11/22 03:22:15;;;;;;;9.53;5.27;;;;;;;-145.69;100.00;72461.13;5093590;28;20213;-79
2021/11/22 03:24:42;;;;;;;9.97;5.70;;;;;;;-145.69;100.00;72459.16;5093110;28;20585;-79
2021/11/22 03:27:08;;;;;;;13.00;5.33;;;;;;;-145.69;100.00;72465.13;5093674;28;20198;-79
2021/11/22 03:29:36;;;;;;;12.43;5.37;;;;;;;-145.69;100.00;72459.16;5093078;28;20653;-79
2021/11/22 03:32:03;;;;;;;10.40;5.63;;;;;;;-145.69;100.00;72461.13;5093278;28;20202;-78
2021/11/22 03:34:29;;;;;;;8.90;4.93;;;;;;;-145.69;100.00;72463.13;5093491;28;20209;-78
2021/11/22 03:37:01;;;;;;;11.77;6.00;;;;;;;-145.69;100.00;72461.13;5093511;28;20255;-78
2021/11/22 03:39:28;;;;;;;11.33;5.77;;;;;;;-145.69;100.00;72461.13;5093462;28;20730;-78
2021/11/22 03:41:57;;;;;;;13.17;6.43;;;;;;;-145.69;100.00;72461.13;5092716;28;20198;-78
2021/11/22 03:44:24;;;;;;;11.43;5.43;;;;;;;-145.69;100.00;72467.13;5093321;28;20248;-78
2021/11/22 03:46:55;;;;;;;13.17;6.07;;;;;;;-145.69;100.00;72471.09;5093288;28;20206;-78
2021/11/22 03:49:22;;;;;;;13.57;5.90;;;;;;;-145.69;100.00;72467.13;5093481;28;20565;-78
2021/11/22 03:51:50;;;;;;;9.13;5.00;;;;;;;-145.69;100.00;72489.00;5092409;28;20198;-78
2021/11/22 03:54:17;;;;;;;11.33;5.37;;;;;;;-145.69;100.00;72494.97;5092815;28;20226;-79
2021/11/22 03:56:44;;;;;;;12.37;5.90;;;;;;;-145.69;100.00;72508.91;5093096;28;20198;-78
2021/11/22 03:59:11;;;;;;;12.40;6.00;;;;;;;-145.69;100.00;72512.91;5093071;28;20327;-78
2021/11/22 04:01:38;;;;;;;10.03;5.27;;;;;;;-145.69;100.00;72516.88;5093075;28;20205;-78
2021/11/22 04:04:07;;;;;;;10.87;5.67;;;;;;;-145.69;100.00;72522.84;5093138;28;20198;-79
2021/11/22 04:06:33;;;;;;;9.83;4.90;;;;;;;-145.69;100.00;72528.81;5093211;28;20629;-79
2021/11/22 04:09:00;;;;;;;11.60;5.63;;;;;;;-145.69;100.00;72528.81;5093238;28;20255;-79
2021/11/22 04:11:27;;;;;;;10.80;5.57;;;;;;;-145.69;100.00;72526.81;5092832;28;20198;-79
2021/11/22 04:13:54;;;;;;;11.30;5.23;;;;;;;-145.69;100.00;72534.78;5092808;28;20226;-79
2021/11/22 04:16:21;;;;;;;9.10;4.90;;;;;;;-145.69;100.00;72540.75;5093099;28;20217;-78
2021/11/22 04:18:48;;;;;;;11.13;5.33;;;;;;;-145.69;100.00;72540.75;5093185;28;20198;-79
2021/11/22 04:21:19;;;;;;;9.93;4.57;;;;;;;-145.69;100.00;72548.72;5093209;28;20262;-78
2021/11/22 04:23:45;;;;;;;10.67;4.93;;;;;;;-145.69;100.00;72548.72;5093234;28;20194;-78
2021/11/22 04:26:12;;;;;;;10.30;5.03;;;;;;;-145.69;100.00;72550.72;5092967;28;20233;-78
2021/11/22 04:28:39;;;;;;;12.43;5.43;;;;;;;-145.69;100.00;72544.75;5093257;28;20206;-78
2021/11/22 04:31:07;;;;;;;13.53;5.70;;;;;;;-145.69;100.00;72544.75;5093245;28;20602;-78
2021/11/22 04:33:36;;;;;;;11.97;5.50;;;;;;;-145.69;100.00;72548.72;5093203;28;20234;-78
2021/11/22 04:36:02;;;;;;;10.83;5.20;;;;;;;-145.69;100.00;72546.72;5092911;28;20679;-78
2021/11/22 04:38:30;;;;;;;11.33;5.37;;;;;;;-145.69;100.00;72548.72;5093217;28;20206;-77
2021/11/22 04:40:57;;;;;;;13.13;5.50;;;;;;;-145.69;100.00;72548.72;5093207;28;20549;-78
2021/11/22 04:43:23;;;;;;;11.83;5.43;;;;;;;-145.69;100.00;72552.69;5092734;28;20204;-77
2021/11/22 04:45:50;;;;;;;12.03;5.43;;;;;;;-145.69;100.00;72560.66;5093148;28;20197;-78
2021/11/22 04:48:16;;;;;;;12.30;4.97;;;;;;;-145.69;100.00;72556.69;5092990;28;20232;-78
2021/11/22 04:50:43;;;;;;;10.97;5.27;;;;;;;-145.69;100.00;72552.69;5092874;28;20570;-78
2021/11/22 04:53:09;;;;;;;10.40;4.80;;;;;;;-145.69;100.00;72554.69;5092616;28;20225;-78
2021/11/22 04:55:37;;;;;;;8.90;4.60;;;;;;;-145.69;100.00;72552.69;5092960;28;20598;-78
2021/11/22 04:58:05;;;;;;;9.20;4.50;;;;;;;-145.69;100.00;72552.69;5092884;28;20198;-78
2021/11/22 05:00:32;;;;;;;11.50;4.90;;;;;;;-145.69;100.00;72548.72;5092519;28;20217;-79
2021/11/22 05:02:58;;;;;;;11.03;4.73;;;;;;;-145.69;100.00;72548.72;5092867;28;20198;-78
2021/11/22 05:05:25;;;;;;;11.17;4.50;;;;;;;-145.69;100.00;72550.72;5095758;28;20198;-79
2021/11/22 05:07:51;;;;;;;10.20;4.70;;;;;;;-145.69;100.00;72552.69;5096474;28;20275;-79
2021/11/22 05:10:19;;;;;;;10.10;4.83;;;;;;;-145.69;100.00;72550.72;5096321;28;20538;-79
2021/11/22 05:12:47;;;;;;;10.50;4.63;;;;;;;-145.69;100.00;72556.69;5096030;28;20583;-79
2021/11/22 05:15:14;;;;;;;8.70;4.40;;;;;;;-145.69;100.00;72562.66;5098564;28;20198;-79
2021/11/22 05:17:41;;;;;;;8.57;4.47;;;;;;;-145.69;100.00;72560.66;5096331;28;20201;-78
2021/11/22 05:20:09;;;;;;;8.80;4.10;;;;;;;-145.69;100.00;72564.66;5096283;28;20202;-79
2021/11/22 05:22:36;;;;;;;9.50;4.50;;;;;;;-145.69;100.00;72560.66;5096203;28;20256;-79
2021/11/22 05:25:03;;;;;;;8.97;4.33;;;;;;;-145.69;100.00;72554.69;5095777;28;20237;-79
2021/11/22 05:27:31;;;;;;;13.53;5.60;;;;;;;-145.69;100.00;72562.66;5096134;28;20202;-79
2021/11/22 05:29:59;;;;;;;12.70;5.90;;;;;;;-145.69;100.00;72568.63;5096070;28;20280;-79
2021/11/22 05:32:26;;;;;;;15.87;7.50;;;;;;;-145.69;100.00;72568.63;5095622;28;20676;-79
2021/11/22 05:34:55;;;;;;;15.87;6.83;;;;;;;-145.69;100.00;72580.56;5095542;28;20233;-80
2021/11/22 05:37:22;;;;;;;16.43;7.53;;;;;;;-145.69;100.00;72580.56;5095617;28;20256;-79
2021/11/22 05:39:49;;;;;;;19.23;8.27;;;;;;;-145.69;100.00;72590.53;5095277;28;20205;-79
2021/11/22 05:42:16;;;;;;;17.13;7.70;;;;;;;-145.69;100.00;72590.53;5095695;28;20198;-79
2021/11/22 05:44:43;;;;;;;17.80;8.63;;;;;;;-145.69;100.00;72590.53;5095257;28;20194;-79
2021/11/22 05:47:13;;;;;;;17.90;8.63;;;;;;;-145.69;100.00;72600.47;5095763;28;20202;-79
2021/11/22 05:49:40;;;;;;;19.00;7.97;;;;;;;-145.69;100.00;72600.47;5095596;28;20225;-79
2021/11/22 05:52:09;;;;;;;17.23;7.70;;;;;;;-145.69;100.00;72592.50;5095705;28;20206;-79
2021/11/22 05:54:45;;;;;;;18.40;7.53;;;;;;;-145.69;100.00;72604.44;5095685;28;20233;-79
2021/11/22 05:57:11;;;;;;;16.47;8.03;;;;;;;-145.69;100.00;72612.41;5095389;28;20648;-79
2021/11/22 05:59:38;;;;;;;15.27;7.03;;;;;;;-145.69;100.00;72614.41;5095352;28;20530;-79
2021/11/22 06:02:04;;;;;;;20.63;9.37;;;;;;;-145.69;100.00;72628.34;5095223;28;20202;-79
2021/11/22 06:04:32;;;;;;;19.10;8.97;;;;;;;-145.69;100.00;72632.31;5095132;28;20204;-79
2021/11/22 06:06:59;;;;;;;22.37;9.70;;;;;;;-145.69;100.00;72638.28;5095062;28;20201;-78
2021/11/22 06:09:25;;;;;;;20.43;8.23;;;;;;;-145.69;100.00;72650.22;5095409;28;20603;-78
2021/11/22 06:11:52;;;;;;;21.40;8.77;;;;;;;-145.69;100.00;72648.25;5095153;28;20255;-78
2021/11/22 06:14:18;;;;;;;22.43;8.40;;;;;;;-145.69;100.00;72644.25;5095317;28;20230;-79
2021/11/22 06:16:45;;;;;;;19.70;8.37;;;;;;;-145.69;100.00;72638.28;5094001;28;20530;-79
2021/11/22 06:19:12;;;;;;;24.53;9.23;;;;;;;-145.69;100.00;72642.28;5094976;28;20206;-78
2021/11/22 06:21:40;;;;;;;23.00;10.00;;;;;;;-145.69;100.00;72644.25;5094539;28;20202;-79
2021/11/22 06:24:06;;;;;;;24.03;9.63;;;;;;;-145.69;100.00;72638.28;5094704;28;20656;-79
2021/11/22 06:26:34;;;;;;;26.53;9.70;;;;;;;-145.69;100.00;72646.25;5094868;28;20251;-78
2021/11/22 06:29:01;;;;;;;24.97;9.20;;;;;;;-145.69;100.00;72650.22;5095320;28;20202;-78
2021/11/22 06:31:27;;;;;;;22.33;8.60;;;;;;;-145.69;100.00;72652.22;5094648;28;20194;-78
2021/11/22 06:33:54;;;;;;;21.40;9.40;;;;;;;-145.69;100.00;72652.22;5094891;28;20233;-78
2021/11/22 06:36:21;;;;;;;22.07;9.17;;;;;;;-145.69;100.00;72652.22;5094471;28;20256;-78
2021/11/22 06:38:48;;;;;;;21.67;8.93;;;;;;;-145.69;100.00;72648.25;5094658;28;20202;-78
2021/11/22 06:41:15;;;;;;;28.93;11.07;;;;;;;-145.69;100.00;72672.13;5094534;28;20202;-78
2021/11/22 06:43:41;;;;;;;27.77;11.63;;;;;;;-145.69;100.00;72682.09;5094544;28;20202;-78
2021/11/22 06:46:08;;;;;;;24.77;10.97;;;;;;;-145.69;100.00;72700.00;5094176;28;20201;-79
2021/11/22 06:48:34;;;;;;;24.23;9.83;;;;;;;-145.69;100.00;72698.00;5094435;28;20198;-78
2021/11/22 06:51:01;;;;;;;25.20;10.27;;;;;;;-145.69;100.00;72700.00;5094381;28;20247;-79
2021/11/22 06:53:27;;;;;;;24.07;9.10;;;;;;;-145.69;100.00;72701.97;5094184;28;20317;-79
2021/11/22 06:55:55;;;;;;;20.73;8.10;;;;;;;-145.69;100.00;72703.97;5094190;28;20217;-79
2021/11/22 06:58:22;;;;;;;27.70;10.27;;;;;;;-145.69;100.00;72711.94;5094055;28;20198;-79
2021/11/22 07:00:49;;;;;;;27.50;10.60;;;;;;;-145.69;100.00;72707.97;5093677;28;20221;-78
2021/11/22 07:03:15;;;;;;;22.80;10.37;;;;;;;-145.69;100.00;72703.97;5093775;28;20206;-79
2021/11/22 07:05:42;;;;;;;22.90;9.27;;;;;;;-145.69;100.00;72727.88;5096558;28;20209;-79
2021/11/22 07:08:08;;;;;;;22.87;9.13;;;;;;;-145.69;100.00;72727.88;5093956;28;20206;-79
2021/11/22 07:10:36;;;;;;;26.83;11.63;;;;;;;-145.69;100.00;72725.88;5093712;28;20209;-79
2021/11/22 07:13:04;;;;;;;29.13;10.90;;;;;;;-145.69;100.00;72719.91;5093589;28;20201;-79
2021/11/22 07:15:34;;;;;;;30.27;11.43;;;;;;;-145.69;100.00;72721.88;5093944;28;20210;-79
2021/11/22 07:18:01;;;;;;;25.73;11.10;;;;;;;-145.69;100.00;72721.88;5093852;28;20279;-79
2021/11/22 07:20:27;;;;;;;22.53;9.97;;;;;;;-145.69;100.00;72727.88;5093699;28;20205;-79
2021/11/22 07:22:54;;;;;;;17.53;8.40;;;;;;;-145.69;100.00;72723.88;5093485;28;20681;-79
2021/11/22 07:25:20;;;;;;;19.70;8.23;;;;;;;-145.69;100.00;72711.94;5093385;28;20240;-79
2021/11/22 07:27:47;;;;;;;21.70;9.30;;;;;;;-145.69;100.00;72711.94;5093391;28;20201;-79
2021/11/22 07:30:19;;;;;;;23.40;8.80;;;;;;;-145.69;100.00;72711.94;5093637;28;20209;-79
2021/11/22 07:32:46;;;;;;;19.70;8.27;;;;;;;-145.69;100.00;72707.97;5093376;28;20198;-79
2021/11/22 07:35:14;;;;;;;16.97;8.40;;;;;;;-145.69;100.00;72705.97;5093407;28;20225;-79
2021/11/22 07:37:41;;;;;;;23.77;9.97;;;;;;;-145.69;100.00;72727.88;5092756;28;20197;-79
2021/11/22 07:40:09;;;;;;;21.30;9.07;;;;;;;-145.69;100.00;72739.81;5093364;28;20201;-79
2021/11/22 07:42:35;;;;;;;27.97;10.77;;;;;;;-145.69;100.00;72737.81;5093188;28;20194;-79
2021/11/22 07:45:02;;;;;;;23.10;9.63;;;;;;;-145.69;100.00;72717.91;5093060;28;20202;-79
2021/11/22 07:47:30;;;;;;;21.03;9.27;;;;;;;-145.69;100.00;72701.97;5093223;28;20530;-79
2021/11/22 07:49:56;;;;;;;19.87;8.13;;;;;;;-145.69;100.00;72690.03;5093412;28;20201;-79
2021/11/22 07:52:23;;;;;;;22.13;9.50;;;;;;;-145.69;100.00;72696.00;5093434;28;20201;-80
2021/11/22 07:54:50;;;;;;;21.10;9.13;;;;;;;-145.69;100.00;72694.03;5092840;28;20230;-80
2021/11/22 07:57:17;;;;;;;18.73;7.70;;;;;;;-145.69;100.00;72680.09;5093227;28;20225;-80
2021/11/22 07:59:43;;;;;;;19.77;8.20;;;;;;;-145.69;100.00;72684.06;5093302;28;20541;-80
2021/11/22 08:02:10;;;;;;;19.63;7.83;;;;;;;-145.69;100.00;72672.13;5093285;28;20594;-80
2021/11/22 08:04:38;;;;;;;20.50;8.73;;;;;;;-145.69;100.00;72672.13;5092814;28;20794;-79
2021/11/22 08:07:12;;;;;;;19.77;9.13;;;;;;;-145.69;100.00;72678.09;5093007;28;20539;-79
2021/11/22 08:09:43;;;;;;;32.80;15.37;;;;;;;-145.69;100.00;72684.06;5092948;28;20225;-80
2021/11/22 08:12:26;;;;;;;22.73;10.47;;;;;;;-145.69;100.00;72676.09;5093154;28;20201;-79
2021/11/22 08:14:53;;;;;;;17.60;9.00;;;;;;;-145.69;100.00;72656.22;5092898;28;20378;-80
2021/11/22 08:17:23;;;;;;;20.53;9.73;;;;;;;-145.69;100.00;72664.16;5092943;28;20292;-80
2021/11/22 08:19:58;;;;;;;16.67;8.50;;;;;;;-145.69;100.00;72666.16;5092829;28;20201;-80
2021/11/22 08:22:26;;;;;;;15.57;7.30;;;;;;;-145.69;100.00;72660.19;5093107;28;20213;-80
2021/11/22 08:24:53;;;;;;;17.53;8.17;;;;;;;-145.69;100.00;72648.25;5092691;28;20232;-79
2021/11/22 08:27:20;;;;;;;18.27;8.07;;;;;;;-145.69;100.00;72640.28;5093037;28;20541;-80
2021/11/22 08:29:49;;;;;;;21.17;9.47;;;;;;;-145.69;100.00;72646.25;5092771;28;20209;-80
2021/11/22 08:32:19;;;;;;;20.43;9.80;;;;;;;-145.69;100.00;72666.16;5092672;28;20201;-80
2021/11/22 08:34:51;;;;;;;91.80;29.63;;;;;;;-145.69;100.00;72642.28;5092705;28;20232;-80
2021/11/22 08:37:21;;;;;;;115.63;47.37;;;;;;;-145.69;100.00;72648.25;5092820;28;20244;-80
2021/11/22 08:39:47;;;;;;;34.33;15.43;;;;;;;-145.69;100.00;72630.31;5095321;28;20205;-80
2021/11/22 08:42:18;;;;;;;19.67;9.90;;;;;;;-145.69;100.00;72624.34;5096645;28;20649;-80
2021/11/22 08:44:44;;;;;;;19.23;9.60;;;;;;;-145.69;100.00;72612.41;5096493;28;20205;-80
2021/11/22 08:47:12;;;;;;;18.70;10.25;;;;;;;-145.69;100.00;72628.34;5095397;28;20466;-79
2021/11/22 08:49:39;;;;;;;17.43;9.80;;;;;;;-145.69;100.00;72640.28;5096719;28;20202;-80
2021/11/22 08:52:06;;;;;;;16.40;7.50;;;;;;;-145.69;100.00;72648.25;5096533;28;20205;-80
2021/11/22 08:54:35;;;;;;;14.47;7.27;;;;;;;-145.69;100.00;72656.22;5096469;28;20233;-79
2021/11/22 08:57:06;;;;;;;17.03;8.30;;;;;;;-145.69;100.00;72624.34;5096376;28;20657;-80
2021/11/22 08:59:33;;;;;;;14.83;7.57;;;;;;;-145.69;100.00;72600.47;5096085;28;20198;-79
2021/11/22 09:01:59;;;;;;;12.37;6.40;;;;;;;-145.69;100.00;72608.44;5096481;28;20220;-79
2021/11/22 09:04:27;;;;;;;17.27;7.67;;;;;;;-145.69;100.00;72622.38;5096306;28;20267;-79
2021/11/22 09:06:54;;;;;;;15.83;7.33;;;;;;;-145.69;100.00;72640.28;5094690;28;20208;-79
2021/11/22 09:09:20;;;;;;;16.57;7.63;;;;;;;-145.69;100.00;72656.22;5096254;28;20201;-77
2021/11/22 09:11:50;;;;;;;16.70;7.93;;;;;;;-145.69;100.00;72622.38;5097153;28;20194;-79
2021/11/22 09:14:19;;;;;;;16.90;8.47;;;;;;;-145.69;100.00;72592.50;5096202;28;20217;-77
2021/11/22 09:16:47;;;;;;;18.93;9.43;;;;;;;-145.69;100.00;72580.56;5095905;28;20213;-79
2021/11/22 09:19:16;;;;;;;17.70;8.47;;;;;;;-145.69;100.00;72594.50;5095831;28;20202;-78
2021/11/22 09:21:43;;;;;;;16.40;8.33;;;;;;;-145.69;100.00;72600.47;5096294;28;20198;-80
2021/11/22 09:24:10;;;;;;;15.87;8.97;;;;;;;-145.69;100.00;72586.53;5095703;28;20213;-79
2021/11/22 09:26:37;;;;;;;16.23;8.07;;;;;;;-145.69;100.00;72548.72;5095626;28;20202;-79
2021/11/22 09:29:06;;;;;;;13.57;7.40;;;;;;;-145.69;100.00;72518.88;5095786;28;20205;-79
2021/11/22 09:31:36;;;;;;;15.37;7.97;;;;;;;-145.69;100.00;72510.91;5095703;28;20205;-80
2021/11/22 09:34:03;;;;;;;13.93;7.47;;;;;;;-145.69;100.00;72514.88;5095280;28;20202;-78
2021/11/22 09:36:31;;;;;;;15.67;6.90;;;;;;;-145.69;100.00;72528.81;5095185;28;20202;-80
2021/11/22 09:39:03;;;;;;;10.10;5.37;;;;;;;-145.69;100.00;72554.69;5095413;28;20198;-79
2021/11/22 09:41:30;;;;;;;10.87;5.37;;;;;;;-145.69;100.00;72524.84;5095722;28;20213;-79
2021/11/22 09:43:58;;;;;;;10.57;5.57;;;;;;;-145.69;100.00;72479.06;5095506;28;20210;-79
2021/11/22 09:46:26;;;;;;;5.97;3.57;;;;;;;-145.69;100.00;72475.06;5095378;28;20205;-79
2021/11/22 09:48:53;;;;;;;3.37;2.13;;;;;;;-145.69;100.00;72447.22;5095609;28;20198;-79
2021/11/22 09:51:20;;;;;;;3.40;1.70;;;;;;;-145.69;100.00;72443.22;5093933;28;20206;-79
2021/11/22 09:53:48;;;;;;;4.70;1.97;;;;;;;-145.69;100.00;72405.41;5095370;28;20231;-80
2021/11/22 09:56:15;;;;;;;3.33;2.00;;;;;;;-145.69;100.00;72419.34;5077680;28;20222;-80
2021/11/22 09:58:42;;;;;;;2.13;1.23;;;;;;;-145.69;100.00;72439.25;5095476;28;20259;-79
2021/11/22 10:01:14;;;;;;;1.20;1.10;;;;;;;-145.69;100.00;72437.25;5095451;28;20247;-79
2021/11/22 10:03:42;;;;;;;1.70;1.27;;;;;;;-145.69;100.00;72421.34;5095450;28;20202;-78
2021/11/22 10:06:09;;;;;;;1.37;1.00;;;;;;;-145.69;100.00;72423.31;5095208;28;20264;-80
2021/11/22 10:08:40;;;;;;;2.20;1.20;;;;;;;-145.69;100.00;72403.41;5095620;28;20201;-79
2021/11/22 10:11:09;;;;;;;1.00;0.90;;;;;;;-145.69;100.00;72383.53;5095315;28;20202;-79
2021/11/22 10:13:38;;;;;;;1.33;1.07;;;;;;;-145.69;100.00;72405.41;5094770;28;20206;-79
2021/11/22 10:16:23;;;;;;;1.13;0.90;;;;;;;-145.69;100.00;72425.31;5094473;28;20230;-79
2021/11/22 10:18:54;;;;;;;1.50;0.90;;;;;;;-145.69;100.00;72413.38;5095055;28;20209;-78
2021/11/22 10:21:23;;;;;;;1.10;1.00;;;;;;;-145.69;100.00;72409.38;5107401;28;20197;-78
2021/11/22 10:23:52;;;;;;;0.80;0.80;;;;;;;-145.69;100.00;72413.38;5114090;28;20644;-78
2021/11/22 10:26:19;;;;;;;3.03;1.10;;;;;;;-145.69;100.00;72405.41;5102124;28;20236;-79
2021/11/22 10:28:47;;;;;;;1.63;1.07;;;;;;;-145.69;100.00;72399.44;5114669;28;20209;-79
2021/11/22 10:31:16;;;;;;;1.67;1.30;;;;;;;-145.69;100.00;72421.34;5114836;28;20201;-80
2021/11/22 10:33:45;;;;;;;1.60;1.20;;;;;;;-145.69;100.00;72401.44;5115116;28;20655;-79
2021/11/22 10:36:16;;;;;;;1.20;1.10;;;;;;;-145.69;100.00;72407.41;5115208;28;20225;-80
2021/11/22 10:38:45;;;;;;;1.40;1.03;;;;;;;-145.69;100.00;72377.53;5115317;28;20201;-79
2021/11/22 10:41:14;;;;;;;1.60;0.93;;;;;;;-145.69;100.00;72393.47;5115033;28;20652;-80
2021/11/22 10:43:49;;;;;;;1.47;1.00;;;;;;;-145.69;100.00;72421.34;5115109;28;20648;-79
2021/11/22 10:46:16;;;;;;;3.00;1.40;;;;;;;-145.69;100.00;72407.41;5115002;28;20258;-79
2021/11/22 10:48:49;;;;;;;2.40;1.10;;;;;;;-145.69;100.00;72401.44;5114983;28;20201;-78
2021/11/22 10:51:21;;;;;;;1.20;0.93;;;;;;;-145.69;100.00;72365.59;5114851;28;20253;-78
2021/11/22 10:53:49;;;;;;;1.37;1.10;;;;;;;-145.69;100.00;72365.59;5114779;28;20201;-77
2021/11/22 10:56:19;;;;;;;1.23;1.10;;;;;;;-145.69;100.00;72365.59;5114830;28;20229;-79
2021/11/22 10:58:57;;;;;;;1.57;1.03;;;;;;;-145.69;100.00;72393.47;5114623;28;20212;-79
2021/11/22 11:01:30;;;;;;;1.73;1.10;;;;;;;-145.69;100.00;72401.44;5114161;28;20193;-79
2021/11/22 11:04:01;;;;;;;1.90;1.13;;;;;;;-145.69;100.00;72387.50;5114501;28;20198;-80
2021/11/22 11:06:44;;;;;;;1.30;1.00;;;;;;;-145.69;100.00;72363.63;5114275;28;20200;-78